sensor_id;sensor_type;location;lat;lon;timestamp;temperature;humidity
49717;DHT22;35609;53.166;7.610;2023-04-03T00:00:48;-0.80;99.90
49717;DHT22;35609;53.166;7.610;2023-04-03T00:03:15;-0.90;99.90
49717;DHT22;35609;53.166;7.610;2023-04-03T00:05:41;-0.90;99.90
49717;DHT22;35609;53.166;7.610;2023-04-03T00:08:07;-1.10;99.90
49717;DHT22;35609;53.166;7.610;2023-04-03T00:10:36;-1.10;99.90
49717;DHT22;35609;53.166;7.610;2023-04-03T00:13:03;-1.00;99.90
49717;DHT22;35609;53.166;7.610;2023-04-03T00:15:30;-1.00;99.90
49717;DHT22;35609;53.166;7.610;2023-04-03T00:17:56;-1.20;99.90
49717;DHT22;35609;53.166;7.610;2023-04-03T00:20:22;-1.10;99.90
49717;DHT22;35609;53.166;7.610;2023-04-03T00:22:48;-1.20;99.90
49717;DHT22;35609;53.166;7.610;2023-04-03T00:25:15;-1.40;99.90
49717;DHT22;35609;53.166;7.610;2023-04-03T00:27:40;-1.40;99.90
49717;DHT22;35609;53.166;7.610;2023-04-03T00:30:08;-1.40;99.90
49717;DHT22;35609;53.166;7.610;2023-04-03T00:32:34;-1.30;99.90
49717;DHT22;35609;53.166;7.610;2023-04-03T00:34:59;-1.40;99.90
49717;DHT22;35609;53.166;7.610;2023-04-03T00:37:25;-1.50;99.90
49717;DHT22;35609;53.166;7.610;2023-04-03T00:39:51;-1.40;99.90
49717;DHT22;35609;53.166;7.610;2023-04-03T00:42:17;-1.40;99.90
49717;DHT22;35609;53.166;7.610;2023-04-03T00:47:13;-1.40;99.90
49717;DHT22;35609;53.166;7.610;2023-04-03T00:49:40;-1.40;99.90
49717;DHT22;35609;53.166;7.610;2023-04-03T00:52:11;-1.60;99.90
49717;DHT22;35609;53.166;7.610;2023-04-03T00:54:38;-1.70;99.90
49717;DHT22;35609;53.166;7.610;2023-04-03T00:57:06;-1.50;99.90
49717;DHT22;35609;53.166;7.610;2023-04-03T00:59:36;-1.30;99.90
49717;DHT22;35609;53.166;7.610;2023-04-03T01:02:04;-1.60;99.90
49717;DHT22;35609;53.166;7.610;2023-04-03T01:04:35;-1.50;99.90
49717;DHT22;35609;53.166;7.610;2023-04-03T01:07:08;-1.50;99.90
49717;DHT22;35609;53.166;7.610;2023-04-03T01:09:35;-1.40;99.90
49717;DHT22;35609;53.166;7.610;2023-04-03T01:12:21;-1.60;99.90
49717;DHT22;35609;53.166;7.610;2023-04-03T01:14:50;-1.50;99.90
49717;DHT22;35609;53.166;7.610;2023-04-03T01:17:44;-1.60;99.90
49717;DHT22;35609;53.166;7.610;2023-04-03T01:28:05;-1.70;99.90
49717;DHT22;35609;53.166;7.610;2023-04-03T01:30:39;-2.00;99.90
49717;DHT22;35609;53.166;7.610;2023-04-03T01:33:06;-2.00;99.90
49717;DHT22;35609;53.166;7.610;2023-04-03T01:35:32;-2.00;99.90
49717;DHT22;35609;53.166;7.610;2023-04-03T01:37:58;-2.10;99.90
49717;DHT22;35609;53.166;7.610;2023-04-03T01:40:23;-2.10;99.90
49717;DHT22;35609;53.166;7.610;2023-04-03T01:42:49;-2.20;99.90
49717;DHT22;35609;53.166;7.610;2023-04-03T01:45:21;-2.40;99.90
49717;DHT22;35609;53.166;7.610;2023-04-03T01:47:47;-2.40;99.90
49717;DHT22;35609;53.166;7.610;2023-04-03T01:50:13;-2.20;99.90
49717;DHT22;35609;53.166;7.610;2023-04-03T01:52:39;-2.10;99.90
49717;DHT22;35609;53.166;7.610;2023-04-03T01:55:05;-2.10;99.90
49717;DHT22;35609;53.166;7.610;2023-04-03T01:57:32;-2.40;99.90
49717;DHT22;35609;53.166;7.610;2023-04-03T01:59:58;-2.50;99.90
49717;DHT22;35609;53.166;7.610;2023-04-03T02:02:24;-2.40;99.90
49717;DHT22;35609;53.166;7.610;2023-04-03T02:04:50;-2.60;99.90
49717;DHT22;35609;53.166;7.610;2023-04-03T02:07:16;-2.80;99.90
49717;DHT22;35609;53.166;7.610;2023-04-03T02:09:42;-2.70;99.90
49717;DHT22;35609;53.166;7.610;2023-04-03T02:12:13;-2.90;99.90
49717;DHT22;35609;53.166;7.610;2023-04-03T02:14:43;-2.70;99.90
49717;DHT22;35609;53.166;7.610;2023-04-03T02:17:09;-2.90;99.90
49717;DHT22;35609;53.166;7.610;2023-04-03T02:19:35;-3.00;99.90
49717;DHT22;35609;53.166;7.610;2023-04-03T02:22:07;-3.00;99.90
49717;DHT22;35609;53.166;7.610;2023-04-03T02:24:33;-3.00;99.90
49717;DHT22;35609;53.166;7.610;2023-04-03T02:27:04;-3.10;99.90
49717;DHT22;35609;53.166;7.610;2023-04-03T02:29:36;-2.90;99.90
49717;DHT22;35609;53.166;7.610;2023-04-03T02:32:02;-2.90;99.90
49717;DHT22;35609;53.166;7.610;2023-04-03T02:34:28;-3.10;99.90
49717;DHT22;35609;53.166;7.610;2023-04-03T02:36:56;-2.80;99.90
49717;DHT22;35609;53.166;7.610;2023-04-03T02:39:25;-3.10;99.90
49717;DHT22;35609;53.166;7.610;2023-04-03T02:41:52;-3.10;99.90
49717;DHT22;35609;53.166;7.610;2023-04-03T02:44:21;-3.10;99.90
49717;DHT22;35609;53.166;7.610;2023-04-03T02:46:52;-3.10;99.90
49717;DHT22;35609;53.166;7.610;2023-04-03T02:49:21;-3.10;99.90
49717;DHT22;35609;53.166;7.610;2023-04-03T02:51:47;-2.90;99.90
49717;DHT22;35609;53.166;7.610;2023-04-03T02:54:16;-3.00;99.90
49717;DHT22;35609;53.166;7.610;2023-04-03T02:56:42;-2.90;99.90
49717;DHT22;35609;53.166;7.610;2023-04-03T02:59:08;-3.10;99.90
49717;DHT22;35609;53.166;7.610;2023-04-03T03:01:37;-3.10;99.90
49717;DHT22;35609;53.166;7.610;2023-04-03T03:04:02;-3.20;99.90
49717;DHT22;35609;53.166;7.610;2023-04-03T03:06:28;-3.00;99.90
49717;DHT22;35609;53.166;7.610;2023-04-03T03:08:54;-3.10;99.90
49717;DHT22;35609;53.166;7.610;2023-04-03T03:11:20;-3.20;99.90
49717;DHT22;35609;53.166;7.610;2023-04-03T03:13:46;-3.30;99.90
49717;DHT22;35609;53.166;7.610;2023-04-03T03:16:12;-3.10;99.90
49717;DHT22;35609;53.166;7.610;2023-04-03T03:18:38;-3.40;99.90
49717;DHT22;35609;53.166;7.610;2023-04-03T03:21:04;-3.10;99.90
49717;DHT22;35609;53.166;7.610;2023-04-03T03:23:31;-3.10;99.90
49717;DHT22;35609;53.166;7.610;2023-04-03T03:26:00;-3.40;99.90
49717;DHT22;35609;53.166;7.610;2023-04-03T03:28:26;-3.10;99.90
49717;DHT22;35609;53.166;7.610;2023-04-03T03:30:52;-3.20;99.90
49717;DHT22;35609;53.166;7.610;2023-04-03T03:33:18;-3.40;99.90
49717;DHT22;35609;53.166;7.610;2023-04-03T03:35:44;-3.40;99.90
49717;DHT22;35609;53.166;7.610;2023-04-03T03:38:10;-3.20;99.90
49717;DHT22;35609;53.166;7.610;2023-04-03T03:40:36;-3.50;99.90
49717;DHT22;35609;53.166;7.610;2023-04-03T03:43:02;-3.20;99.90
49717;DHT22;35609;53.166;7.610;2023-04-03T03:45:27;-3.10;99.90
49717;DHT22;35609;53.166;7.610;2023-04-03T03:47:53;-3.50;99.90
49717;DHT22;35609;53.166;7.610;2023-04-03T03:50:19;-3.10;99.90
49717;DHT22;35609;53.166;7.610;2023-04-03T03:52:45;-3.40;99.90
49717;DHT22;35609;53.166;7.610;2023-04-03T03:55:11;-3.50;99.90
49717;DHT22;35609;53.166;7.610;2023-04-03T03:57:37;-3.50;99.90
49717;DHT22;35609;53.166;7.610;2023-04-03T04:00:03;-3.60;99.90
49717;DHT22;35609;53.166;7.610;2023-04-03T04:02:29;-3.50;99.90
49717;DHT22;35609;53.166;7.610;2023-04-03T04:04:55;-3.30;99.90
49717;DHT22;35609;53.166;7.610;2023-04-03T04:07:21;-3.30;99.90
49717;DHT22;35609;53.166;7.610;2023-04-03T04:09:46;-3.50;99.90
49717;DHT22;35609;53.166;7.610;2023-04-03T04:12:12;-3.50;99.90
49717;DHT22;35609;53.166;7.610;2023-04-03T04:14:38;-3.80;99.90
49717;DHT22;35609;53.166;7.610;2023-04-03T04:17:03;-3.70;99.90
49717;DHT22;35609;53.166;7.610;2023-04-03T04:19:29;-3.90;99.90
49717;DHT22;35609;53.166;7.610;2023-04-03T04:21:54;-4.00;99.90
49717;DHT22;35609;53.166;7.610;2023-04-03T04:24:20;-3.70;99.90
49717;DHT22;35609;53.166;7.610;2023-04-03T04:26:48;-3.90;99.90
49717;DHT22;35609;53.166;7.610;2023-04-03T04:29:13;-3.70;99.90
49717;DHT22;35609;53.166;7.610;2023-04-03T04:31:39;-4.00;99.90
49717;DHT22;35609;53.166;7.610;2023-04-03T04:34:05;-4.00;99.90
49717;DHT22;35609;53.166;7.610;2023-04-03T04:36:31;-3.70;99.90
49717;DHT22;35609;53.166;7.610;2023-04-03T04:38:56;-4.00;99.90
49717;DHT22;35609;53.166;7.610;2023-04-03T04:41:24;-3.80;99.90
49717;DHT22;35609;53.166;7.610;2023-04-03T04:43:50;-3.70;99.90
49717;DHT22;35609;53.166;7.610;2023-04-03T04:46:16;-3.80;99.90
49717;DHT22;35609;53.166;7.610;2023-04-03T04:48:42;-3.90;99.90
49717;DHT22;35609;53.166;7.610;2023-04-03T04:51:08;-3.80;99.90
49717;DHT22;35609;53.166;7.610;2023-04-03T04:53:34;-3.70;99.90
49717;DHT22;35609;53.166;7.610;2023-04-03T04:56:00;-4.10;99.90
49717;DHT22;35609;53.166;7.610;2023-04-03T04:58:25;-3.80;99.90
49717;DHT22;35609;53.166;7.610;2023-04-03T05:01:02;-3.90;99.90
49717;DHT22;35609;53.166;7.610;2023-04-03T05:03:28;-4.10;99.90
49717;DHT22;35609;53.166;7.610;2023-04-03T05:05:54;-3.70;99.90
49717;DHT22;35609;53.166;7.610;2023-04-03T05:08:20;-3.70;99.90
49717;DHT22;35609;53.166;7.610;2023-04-03T05:10:46;-4.00;99.90
49717;DHT22;35609;53.166;7.610;2023-04-03T05:13:12;-3.80;99.90
49717;DHT22;35609;53.166;7.610;2023-04-03T05:15:38;-4.00;99.90
49717;DHT22;35609;53.166;7.610;2023-04-03T05:18:04;-3.60;99.90
49717;DHT22;35609;53.166;7.610;2023-04-03T05:20:31;-3.70;99.90
49717;DHT22;35609;53.166;7.610;2023-04-03T05:22:56;-3.60;99.90
49717;DHT22;35609;53.166;7.610;2023-04-03T05:25:22;-3.80;99.90
49717;DHT22;35609;53.166;7.610;2023-04-03T05:27:48;-3.50;99.90
49717;DHT22;35609;53.166;7.610;2023-04-03T05:30:14;-3.40;99.90
49717;DHT22;35609;53.166;7.610;2023-04-03T05:32:40;-3.60;99.90
49717;DHT22;35609;53.166;7.610;2023-04-03T05:35:07;-3.60;99.90
49717;DHT22;35609;53.166;7.610;2023-04-03T05:37:33;-3.50;99.90
49717;DHT22;35609;53.166;7.610;2023-04-03T05:39:59;-3.20;99.90
49717;DHT22;35609;53.166;7.610;2023-04-03T05:42:24;-3.50;99.90
49717;DHT22;35609;53.166;7.610;2023-04-03T05:44:50;-3.10;99.90
49717;DHT22;35609;53.166;7.610;2023-04-03T05:47:16;-3.20;99.90
49717;DHT22;35609;53.166;7.610;2023-04-03T05:49:42;-2.90;99.90
49717;DHT22;35609;53.166;7.610;2023-04-03T05:52:30;-2.80;99.90
49717;DHT22;35609;53.166;7.610;2023-04-03T05:54:57;-2.80;99.90
49717;DHT22;35609;53.166;7.610;2023-04-03T05:57:23;-2.50;99.90
49717;DHT22;35609;53.166;7.610;2023-04-03T05:59:49;-2.40;99.90
49717;DHT22;35609;53.166;7.610;2023-04-03T06:02:19;-2.30;99.90
49717;DHT22;35609;53.166;7.610;2023-04-03T06:04:46;-2.20;99.90
49717;DHT22;35609;53.166;7.610;2023-04-03T06:07:15;-2.00;99.90
49717;DHT22;35609;53.166;7.610;2023-04-03T06:09:41;-1.80;99.90
49717;DHT22;35609;53.166;7.610;2023-04-03T06:12:07;-1.90;99.90
49717;DHT22;35609;53.166;7.610;2023-04-03T06:14:33;-1.90;99.90
49717;DHT22;35609;53.166;7.610;2023-04-03T06:16:58;-1.40;99.90
49717;DHT22;35609;53.166;7.610;2023-04-03T06:19:25;-1.60;99.90
49717;DHT22;35609;53.166;7.610;2023-04-03T06:21:51;-1.20;99.90
49717;DHT22;35609;53.166;7.610;2023-04-03T06:24:17;-0.90;99.90
49717;DHT22;35609;53.166;7.610;2023-04-03T06:26:44;-0.80;99.90
49717;DHT22;35609;53.166;7.610;2023-04-03T06:29:09;-0.60;99.90
49717;DHT22;35609;53.166;7.610;2023-04-03T06:31:35;-0.80;99.90
49717;DHT22;35609;53.166;7.610;2023-04-03T06:34:04;-0.50;99.90
49717;DHT22;35609;53.166;7.610;2023-04-03T06:36:31;-0.20;99.90
49717;DHT22;35609;53.166;7.610;2023-04-03T06:38:57;-0.20;99.90
49717;DHT22;35609;53.166;7.610;2023-04-03T06:41:22;0.00;99.90
49717;DHT22;35609;53.166;7.610;2023-04-03T06:43:48;0.20;99.90
49717;DHT22;35609;53.166;7.610;2023-04-03T06:46:19;0.30;99.90
49717;DHT22;35609;53.166;7.610;2023-04-03T06:48:45;0.50;99.90
49717;DHT22;35609;53.166;7.610;2023-04-03T06:51:18;0.80;99.90
49717;DHT22;35609;53.166;7.610;2023-04-03T06:53:44;0.80;99.90
49717;DHT22;35609;53.166;7.610;2023-04-03T06:56:11;0.90;99.90
49717;DHT22;35609;53.166;7.610;2023-04-03T06:58:36;1.20;99.90
49717;DHT22;35609;53.166;7.610;2023-04-03T07:01:03;1.30;99.90
49717;DHT22;35609;53.166;7.610;2023-04-03T07:03:28;1.50;99.90
49717;DHT22;35609;53.166;7.610;2023-04-03T07:06:01;1.60;99.90
49717;DHT22;35609;53.166;7.610;2023-04-03T07:08:26;1.80;99.90
49717;DHT22;35609;53.166;7.610;2023-04-03T07:10:52;1.90;99.90
49717;DHT22;35609;53.166;7.610;2023-04-03T07:13:18;2.20;99.90
49717;DHT22;35609;53.166;7.610;2023-04-03T07:15:43;2.40;99.90
49717;DHT22;35609;53.166;7.610;2023-04-03T07:18:09;2.50;99.90
49717;DHT22;35609;53.166;7.610;2023-04-03T07:20:35;2.70;99.90
49717;DHT22;35609;53.166;7.610;2023-04-03T07:23:00;2.70;99.90
49717;DHT22;35609;53.166;7.610;2023-04-03T07:25:28;2.80;99.90
49717;DHT22;35609;53.166;7.610;2023-04-03T07:27:53;3.10;99.90
49717;DHT22;35609;53.166;7.610;2023-04-03T07:30:20;3.40;99.90
49717;DHT22;35609;53.166;7.610;2023-04-03T07:32:46;3.50;99.90
49717;DHT22;35609;53.166;7.610;2023-04-03T07:35:12;3.50;99.90
49717;DHT22;35609;53.166;7.610;2023-04-03T07:37:38;3.70;99.90
49717;DHT22;35609;53.166;7.610;2023-04-03T07:40:04;4.00;99.90
49717;DHT22;35609;53.166;7.610;2023-04-03T07:42:30;4.10;99.90
49717;DHT22;35609;53.166;7.610;2023-04-03T07:44:57;4.20;99.90
49717;DHT22;35609;53.166;7.610;2023-04-03T07:47:22;4.30;99.90
49717;DHT22;35609;53.166;7.610;2023-04-03T07:49:48;4.80;99.90
49717;DHT22;35609;53.166;7.610;2023-04-03T07:52:14;4.70;99.90
49717;DHT22;35609;53.166;7.610;2023-04-03T07:54:41;5.00;99.90
49717;DHT22;35609;53.166;7.610;2023-04-03T07:57:07;5.20;99.90
49717;DHT22;35609;53.166;7.610;2023-04-03T07:59:33;5.00;99.90
49717;DHT22;35609;53.166;7.610;2023-04-03T08:01:59;5.00;99.90
49717;DHT22;35609;53.166;7.610;2023-04-03T08:04:25;5.10;99.90
49717;DHT22;35609;53.166;7.610;2023-04-03T08:06:51;5.50;99.90
49717;DHT22;35609;53.166;7.610;2023-04-03T08:09:18;5.90;99.90
49717;DHT22;35609;53.166;7.610;2023-04-03T08:11:44;5.90;99.90
49717;DHT22;35609;53.166;7.610;2023-04-03T08:14:10;6.40;99.90
49717;DHT22;35609;53.166;7.610;2023-04-03T08:16:42;6.40;99.90
49717;DHT22;35609;53.166;7.610;2023-04-03T08:19:08;6.50;99.90
49717;DHT22;35609;53.166;7.610;2023-04-03T08:21:34;6.50;99.90
49717;DHT22;35609;53.166;7.610;2023-04-03T08:23:59;6.70;99.90
49717;DHT22;35609;53.166;7.610;2023-04-03T08:26:25;6.60;99.90
49717;DHT22;35609;53.166;7.610;2023-04-03T08:28:52;6.60;99.90
49717;DHT22;35609;53.166;7.610;2023-04-03T08:31:19;6.60;99.90
49717;DHT22;35609;53.166;7.610;2023-04-03T08:33:46;7.00;99.90
49717;DHT22;35609;53.166;7.610;2023-04-03T08:36:18;7.10;99.90
49717;DHT22;35609;53.166;7.610;2023-04-03T08:38:45;7.20;99.90
49717;DHT22;35609;53.166;7.610;2023-04-03T08:41:40;7.30;99.90
49717;DHT22;35609;53.166;7.610;2023-04-03T08:44:31;7.70;99.90
49717;DHT22;35609;53.166;7.610;2023-04-03T08:50:01;8.30;99.10
49717;DHT22;35609;53.166;7.610;2023-04-03T08:52:49;7.90;95.60
49717;DHT22;35609;53.166;7.610;2023-04-03T08:55:33;8.10;95.40
49717;DHT22;35609;53.166;7.610;2023-04-03T08:58:06;8.00;94.10
49717;DHT22;35609;53.166;7.610;2023-04-03T09:03:41;8.30;94.60
49717;DHT22;35609;53.166;7.610;2023-04-03T09:06:20;8.40;94.50
49717;DHT22;35609;53.166;7.610;2023-04-03T09:14:15;8.40;93.30
49717;DHT22;35609;53.166;7.610;2023-04-03T09:16:55;8.90;95.30
49717;DHT22;35609;53.166;7.610;2023-04-03T09:22:00;9.10;92.00
49717;DHT22;35609;53.166;7.610;2023-04-03T09:24:28;9.00;91.90
49717;DHT22;35609;53.166;7.610;2023-04-03T09:27:04;9.30;95.20
49717;DHT22;35609;53.166;7.610;2023-04-03T09:29:31;9.60;92.10
49717;DHT22;35609;53.166;7.610;2023-04-03T09:32:01;9.70;91.50
49717;DHT22;35609;53.166;7.610;2023-04-03T09:34:32;9.80;91.20
49717;DHT22;35609;53.166;7.610;2023-04-03T09:37:01;9.80;92.40
49717;DHT22;35609;53.166;7.610;2023-04-03T09:39:33;9.90;91.50
49717;DHT22;35609;53.166;7.610;2023-04-03T09:42:19;10.50;92.80
49717;DHT22;35609;53.166;7.610;2023-04-03T09:44:55;10.50;91.60
49717;DHT22;35609;53.166;7.610;2023-04-03T09:47:26;10.40;89.40
49717;DHT22;35609;53.166;7.610;2023-04-03T09:52:37;10.30;87.40
49717;DHT22;35609;53.166;7.610;2023-04-03T09:55:08;10.60;90.40
49717;DHT22;35609;53.166;7.610;2023-04-03T09:57:38;10.70;87.70
49717;DHT22;35609;53.166;7.610;2023-04-03T10:00:05;10.90;88.40
49717;DHT22;35609;53.166;7.610;2023-04-03T10:02:40;11.10;91.30
49717;DHT22;35609;53.166;7.610;2023-04-03T10:05:32;11.20;87.00
49717;DHT22;35609;53.166;7.610;2023-04-03T10:08:23;11.00;84.30
49717;DHT22;35609;53.166;7.610;2023-04-03T10:11:07;11.40;91.00
49717;DHT22;35609;53.166;7.610;2023-04-03T10:13:35;11.50;86.80
49717;DHT22;35609;53.166;7.610;2023-04-03T10:16:06;12.10;90.00
49717;DHT22;35609;53.166;7.610;2023-04-03T10:18:42;11.90;84.90
49717;DHT22;35609;53.166;7.610;2023-04-03T10:24:06;12.00;85.00
49717;DHT22;35609;53.166;7.610;2023-04-03T10:27:03;12.00;84.70
49717;DHT22;35609;53.166;7.610;2023-04-03T10:29:51;12.10;86.10
49717;DHT22;35609;53.166;7.610;2023-04-03T10:38:31;12.50;85.40
49717;DHT22;35609;53.166;7.610;2023-04-03T10:53:08;12.90;79.00
49717;DHT22;35609;53.166;7.610;2023-04-03T10:55:38;13.10;86.60
49717;DHT22;35609;53.166;7.610;2023-04-03T10:58:06;13.40;85.50
49717;DHT22;35609;53.166;7.610;2023-04-03T11:00:43;12.50;81.30
49717;DHT22;35609;53.166;7.610;2023-04-03T11:03:26;12.80;80.40
49717;DHT22;35609;53.166;7.610;2023-04-03T11:05:55;12.80;80.40
49717;DHT22;35609;53.166;7.610;2023-04-03T11:08:28;13.00;80.30
49717;DHT22;35609;53.166;7.610;2023-04-03T11:11:02;13.40;85.90
49717;DHT22;35609;53.166;7.610;2023-04-03T11:13:43;13.50;77.30
49717;DHT22;35609;53.166;7.610;2023-04-03T11:16:18;13.70;78.10
49717;DHT22;35609;53.166;7.610;2023-04-03T11:19:22;13.60;82.30
49717;DHT22;35609;53.166;7.610;2023-04-03T11:21:56;13.30;82.40
49717;DHT22;35609;53.166;7.610;2023-04-03T11:24:26;13.50;75.70
49717;DHT22;35609;53.166;7.610;2023-04-03T11:26:54;13.20;83.90
49717;DHT22;35609;53.166;7.610;2023-04-03T11:29:28;13.10;80.30
49717;DHT22;35609;53.166;7.610;2023-04-03T11:32:05;13.20;83.70
49717;DHT22;35609;53.166;7.610;2023-04-03T11:34:39;13.40;80.80
49717;DHT22;35609;53.166;7.610;2023-04-03T11:37:33;13.90;75.10
49717;DHT22;35609;53.166;7.610;2023-04-03T11:42:45;14.30;81.90
49717;DHT22;35609;53.166;7.610;2023-04-03T11:47:45;14.00;78.70
49717;DHT22;35609;53.166;7.610;2023-04-03T11:50:31;13.90;78.50
49717;DHT22;35609;53.166;7.610;2023-04-03T12:00:47;13.70;78.20
49717;DHT22;35609;53.166;7.610;2023-04-03T12:16:27;13.80;77.00
49717;DHT22;35609;53.166;7.610;2023-04-03T12:24:03;14.10;80.30
49717;DHT22;35609;53.166;7.610;2023-04-03T12:26:39;14.20;81.30
49717;DHT22;35609;53.166;7.610;2023-04-03T12:40:31;13.70;78.40
49717;DHT22;35609;53.166;7.610;2023-04-03T12:48:17;13.00;77.10
49717;DHT22;35609;53.166;7.610;2023-04-03T12:50:45;13.60;79.80
49717;DHT22;35609;53.166;7.610;2023-04-03T12:53:16;13.80;81.90
49717;DHT22;35609;53.166;7.610;2023-04-03T12:55:43;13.90;79.90
49717;DHT22;35609;53.166;7.610;2023-04-03T12:58:22;14.20;79.70
49717;DHT22;35609;53.166;7.610;2023-04-03T13:01:10;14.80;78.30
49717;DHT22;35609;53.166;7.610;2023-04-03T13:03:39;14.90;78.30
49717;DHT22;35609;53.166;7.610;2023-04-03T13:06:05;14.90;74.90
49717;DHT22;35609;53.166;7.610;2023-04-03T13:08:32;14.70;76.10
49717;DHT22;35609;53.166;7.610;2023-04-03T13:11:11;14.70;74.40
49717;DHT22;35609;53.166;7.610;2023-04-03T13:13:37;15.30;77.80
49717;DHT22;35609;53.166;7.610;2023-04-03T13:16:10;15.30;73.90
49717;DHT22;35609;53.166;7.610;2023-04-03T13:18:36;14.70;79.40
49717;DHT22;35609;53.166;7.610;2023-04-03T13:21:06;15.10;77.90
49717;DHT22;35609;53.166;7.610;2023-04-03T13:23:36;15.20;75.30
49717;DHT22;35609;53.166;7.610;2023-04-03T13:26:04;15.40;74.80
49717;DHT22;35609;53.166;7.610;2023-04-03T13:28:32;15.50;73.60
49717;DHT22;35609;53.166;7.610;2023-04-03T13:31:12;15.50;78.60
49717;DHT22;35609;53.166;7.610;2023-04-03T13:36:34;15.00;76.20
49717;DHT22;35609;53.166;7.610;2023-04-03T13:39:05;15.00;70.40
49717;DHT22;35609;53.166;7.610;2023-04-03T13:41:41;14.00;70.40
49717;DHT22;35609;53.166;7.610;2023-04-03T13:46:42;13.70;77.90
49717;DHT22;35609;53.166;7.610;2023-04-03T13:51:51;13.70;76.90
49717;DHT22;35609;53.166;7.610;2023-04-03T13:54:45;14.00;77.00
49717;DHT22;35609;53.166;7.610;2023-04-03T13:57:14;14.20;79.00
49717;DHT22;35609;53.166;7.610;2023-04-03T13:59:40;14.90;76.70
49717;DHT22;35609;53.166;7.610;2023-04-03T14:02:15;15.10;76.40
49717;DHT22;35609;53.166;7.610;2023-04-03T14:07:12;15.30;77.90
49717;DHT22;35609;53.166;7.610;2023-04-03T14:09:38;14.90;76.80
49717;DHT22;35609;53.166;7.610;2023-04-03T14:12:12;14.70;77.70
49717;DHT22;35609;53.166;7.610;2023-04-03T14:14:39;14.60;77.60
49717;DHT22;35609;53.166;7.610;2023-04-03T14:17:21;15.20;77.30
49717;DHT22;35609;53.166;7.610;2023-04-03T14:19:48;14.30;75.20
49717;DHT22;35609;53.166;7.610;2023-04-03T14:22:19;14.50;75.70
49717;DHT22;35609;53.166;7.610;2023-04-03T14:24:46;14.30;77.70
49717;DHT22;35609;53.166;7.610;2023-04-03T14:27:19;14.60;72.40
49717;DHT22;35609;53.166;7.610;2023-04-03T14:29:46;14.00;72.10
49717;DHT22;35609;53.166;7.610;2023-04-03T14:32:13;13.20;73.60
49717;DHT22;35609;53.166;7.610;2023-04-03T14:34:42;13.20;77.50
49717;DHT22;35609;53.166;7.610;2023-04-03T14:37:23;13.60;77.60
49717;DHT22;35609;53.166;7.610;2023-04-03T14:39:51;14.00;78.60
49717;DHT22;35609;53.166;7.610;2023-04-03T14:42:24;14.20;73.40
49717;DHT22;35609;53.166;7.610;2023-04-03T14:44:50;14.20;74.70
49717;DHT22;35609;53.166;7.610;2023-04-03T14:47:20;14.10;77.90
49717;DHT22;35609;53.166;7.610;2023-04-03T14:49:47;13.30;73.70
49717;DHT22;35609;53.166;7.610;2023-04-03T14:52:21;13.00;77.70
49717;DHT22;35609;53.166;7.610;2023-04-03T14:54:48;13.30;78.30
49717;DHT22;35609;53.166;7.610;2023-04-03T14:57:15;13.10;77.10
49717;DHT22;35609;53.166;7.610;2023-04-03T14:59:42;12.70;78.10
49717;DHT22;35609;53.166;7.610;2023-04-03T15:02:24;13.10;79.50
49717;DHT22;35609;53.166;7.610;2023-04-03T15:04:50;13.20;78.30
49717;DHT22;35609;53.166;7.610;2023-04-03T15:07:16;13.60;78.00
49717;DHT22;35609;53.166;7.610;2023-04-03T15:09:41;13.70;79.00
49717;DHT22;35609;53.166;7.610;2023-04-03T15:12:08;13.70;77.20
49717;DHT22;35609;53.166;7.610;2023-04-03T15:14:34;14.00;78.80
49717;DHT22;35609;53.166;7.610;2023-04-03T15:17:00;13.90;79.90
49717;DHT22;35609;53.166;7.610;2023-04-03T15:19:25;13.00;77.30
49717;DHT22;35609;53.166;7.610;2023-04-03T15:21:51;12.80;75.50
49717;DHT22;35609;53.166;7.610;2023-04-03T15:24:17;13.00;76.60
49717;DHT22;35609;53.166;7.610;2023-04-03T15:26:43;12.90;74.90
49717;DHT22;35609;53.166;7.610;2023-04-03T15:29:08;13.20;78.10
49717;DHT22;35609;53.166;7.610;2023-04-03T15:31:34;13.70;77.20
49717;DHT22;35609;53.166;7.610;2023-04-03T15:34:00;13.30;77.20
49717;DHT22;35609;53.166;7.610;2023-04-03T15:36:26;13.50;75.60
49717;DHT22;35609;53.166;7.610;2023-04-03T15:38:52;13.20;76.10
49717;DHT22;35609;53.166;7.610;2023-04-03T15:41:17;13.00;76.10
49717;DHT22;35609;53.166;7.610;2023-04-03T15:43:43;13.20;77.40
49717;DHT22;35609;53.166;7.610;2023-04-03T15:46:09;13.20;76.00
49717;DHT22;35609;53.166;7.610;2023-04-03T15:48:36;12.80;77.10
49717;DHT22;35609;53.166;7.610;2023-04-03T15:51:02;12.90;76.90
49717;DHT22;35609;53.166;7.610;2023-04-03T15:53:27;12.70;77.70
49717;DHT22;35609;53.166;7.610;2023-04-03T15:55:53;12.50;78.50
49717;DHT22;35609;53.166;7.610;2023-04-03T15:58:18;12.30;79.60
49717;DHT22;35609;53.166;7.610;2023-04-03T16:00:44;12.50;79.20
49717;DHT22;35609;53.166;7.610;2023-04-03T16:03:16;12.70;81.10
49717;DHT22;35609;53.166;7.610;2023-04-03T16:05:43;12.40;78.70
49717;DHT22;35609;53.166;7.610;2023-04-03T16:08:10;12.50;77.50
49717;DHT22;35609;53.166;7.610;2023-04-03T16:10:36;12.10;78.90
49717;DHT22;35609;53.166;7.610;2023-04-03T16:13:02;12.30;80.40
49717;DHT22;35609;53.166;7.610;2023-04-03T16:15:29;11.80;80.60
49717;DHT22;35609;53.166;7.610;2023-04-03T16:17:57;11.90;80.00
49717;DHT22;35609;53.166;7.610;2023-04-03T16:20:23;11.70;78.40
49717;DHT22;35609;53.166;7.610;2023-04-03T16:22:49;11.60;78.70
49717;DHT22;35609;53.166;7.610;2023-04-03T16:25:15;11.30;80.00
49717;DHT22;35609;53.166;7.610;2023-04-03T16:27:41;11.50;79.60
49717;DHT22;35609;53.166;7.610;2023-04-03T16:30:08;11.20;78.60
49717;DHT22;35609;53.166;7.610;2023-04-03T16:32:34;11.10;80.20
49717;DHT22;35609;53.166;7.610;2023-04-03T16:35:00;11.00;81.40
49717;DHT22;35609;53.166;7.610;2023-04-03T16:37:26;10.40;82.20
49717;DHT22;35609;53.166;7.610;2023-04-03T16:39:52;10.40;79.50
49717;DHT22;35609;53.166;7.610;2023-04-03T16:42:20;10.00;81.40
49717;DHT22;35609;53.166;7.610;2023-04-03T16:44:46;10.00;83.30
49717;DHT22;35609;53.166;7.610;2023-04-03T16:47:13;9.70;82.90
49717;DHT22;35609;53.166;7.610;2023-04-03T16:49:39;9.50;84.40
49717;DHT22;35609;53.166;7.610;2023-04-03T16:52:05;9.20;83.30
49717;DHT22;35609;53.166;7.610;2023-04-03T16:54:32;8.90;83.50
49717;DHT22;35609;53.166;7.610;2023-04-03T16:56:58;8.70;83.10
49717;DHT22;35609;53.166;7.610;2023-04-03T16:59:24;8.50;86.20
49717;DHT22;35609;53.166;7.610;2023-04-03T17:01:49;8.20;86.20
49717;DHT22;35609;53.166;7.610;2023-04-03T17:04:15;7.90;88.00
49717;DHT22;35609;53.166;7.610;2023-04-03T17:06:41;7.70;87.20
49717;DHT22;35609;53.166;7.610;2023-04-03T17:09:07;7.50;87.40
49717;DHT22;35609;53.166;7.610;2023-04-03T17:11:35;7.30;88.80
49717;DHT22;35609;53.166;7.610;2023-04-03T17:14:01;7.00;90.00
49717;DHT22;35609;53.166;7.610;2023-04-03T17:16:27;7.00;90.20
49717;DHT22;35609;53.166;7.610;2023-04-03T17:18:53;6.90;90.40
49717;DHT22;35609;53.166;7.610;2023-04-03T17:21:20;6.80;90.80
49717;DHT22;35609;53.166;7.610;2023-04-03T17:23:49;6.70;90.70
49717;DHT22;35609;53.166;7.610;2023-04-03T17:26:18;6.70;90.80
49717;DHT22;35609;53.166;7.610;2023-04-03T17:28:43;6.50;91.60
49717;DHT22;35609;53.166;7.610;2023-04-03T17:31:09;6.40;92.60